createdAt,value
2018-04-13T00:00:54.113Z,11.50
2018-04-13T00:03:21.583Z,8.73
2018-04-13T00:05:49.090Z,9.77
2018-04-13T00:08:17.339Z,9.57
2018-04-13T00:10:44.820Z,9.30
2018-04-13T00:13:13.057Z,11.70
2018-04-13T00:15:40.555Z,8.93
2018-04-13T00:18:08.018Z,14.63
2018-04-13T00:20:36.311Z,8.70
2018-04-13T00:23:03.857Z,9.70
2018-04-13T00:25:32.520Z,10.20
2018-04-13T00:28:00.009Z,7.93
2018-04-13T00:30:28.280Z,12.40
2018-04-13T00:32:55.840Z,8.20
2018-04-13T00:35:24.100Z,8.33
2018-04-13T00:37:52.479Z,10.60
2018-04-13T00:40:19.945Z,8.10
2018-04-13T00:42:48.187Z,8.20
2018-04-13T00:45:15.671Z,8.17
2018-04-13T00:47:43.923Z,8.47
2018-04-13T00:50:11.396Z,8.90
2018-04-13T00:52:39.810Z,8.57
2018-04-13T00:55:07.279Z,7.40
2018-04-13T00:57:34.763Z,7.87
2018-04-13T01:00:02.231Z,7.93
2018-04-13T01:02:29.724Z,9.57
2018-04-13T01:04:57.958Z,9.27
2018-04-13T01:07:25.462Z,11.63
2018-04-13T01:09:53.706Z,12.50
2018-04-13T01:12:21.972Z,9.13
2018-04-13T01:14:49.457Z,13.97
2018-04-13T01:17:17.706Z,9.37
2018-04-13T01:19:46.705Z,13.30
2018-04-13T01:22:14.188Z,8.40
2018-04-13T01:24:42.423Z,10.07
2018-04-13T01:27:09.916Z,9.33
2018-04-13T01:29:38.199Z,11.70
2018-04-13T01:32:06.474Z,9.07
2018-04-13T01:34:35.435Z,10.77
2018-04-13T01:37:02.922Z,8.57
2018-04-13T01:39:31.182Z,8.70
2018-04-13T01:41:58.771Z,15.40
2018-04-13T01:44:26.307Z,9.50
2018-04-13T01:46:54.574Z,10.87
2018-04-13T01:49:22.824Z,10.67
2018-04-13T01:51:50.322Z,8.23
2018-04-13T01:54:18.558Z,9.83
2018-04-13T01:56:46.249Z,10.33
2018-04-13T01:59:13.720Z,17.80
2018-04-13T02:01:41.984Z,8.70
2018-04-13T02:04:09.485Z,12.00
2018-04-13T02:06:37.008Z,8.80
2018-04-13T02:09:06.167Z,10.63
2018-04-13T02:11:33.655Z,8.87
2018-04-13T02:14:01.892Z,10.00
2018-04-13T02:16:29.393Z,12.87
2018-04-13T02:18:57.637Z,13.57
2018-04-13T02:21:25.130Z,10.37
2018-04-13T02:23:53.375Z,11.90
2018-04-13T02:26:22.387Z,22.13
2018-04-13T02:28:50.640Z,11.27
2018-04-13T02:31:18.225Z,10.43
2018-04-13T02:33:46.460Z,10.57
2018-04-13T02:36:13.959Z,12.60
2018-04-13T02:38:42.273Z,14.33
2018-04-13T02:41:09.759Z,11.93
2018-04-13T02:43:37.286Z,10.13
2018-04-13T02:46:04.804Z,12.37
2018-04-13T02:48:33.063Z,10.37
2018-04-13T02:51:00.540Z,11.13
2018-04-13T02:53:28.843Z,11.73
2018-04-13T02:55:56.336Z,12.73
2018-04-13T02:58:23.836Z,10.83
2018-04-13T03:00:52.084Z,15.07
2018-04-13T03:03:19.593Z,11.97
2018-04-13T03:05:47.067Z,13.30
2018-04-13T03:08:14.572Z,14.87
2018-04-13T03:10:42.828Z,11.23
2018-04-13T03:13:10.340Z,14.93
2018-04-13T03:15:37.871Z,14.97
2018-04-13T03:18:06.145Z,13.37
2018-04-13T03:20:33.713Z,14.50
2018-04-13T03:23:02.177Z,15.00
2018-04-13T03:25:29.649Z,13.97
2018-04-13T03:27:57.908Z,12.43
2018-04-13T03:30:25.379Z,13.53
2018-04-13T03:32:53.665Z,11.13
2018-04-13T03:35:21.920Z,12.77
2018-04-13T03:37:49.505Z,13.73
2018-04-13T03:40:17.008Z,16.47
2018-04-13T03:42:44.737Z,21.33
2018-04-13T03:45:12.311Z,15.43
2018-04-13T03:47:39.811Z,14.93
2018-04-13T03:50:07.289Z,16.43
2018-04-13T03:52:35.543Z,17.57
2018-04-13T03:55:03.022Z,17.63
2018-04-13T03:57:31.291Z,18.17
2018-04-13T03:59:59.531Z,21.60
2018-04-13T04:02:27.037Z,21.10
2018-04-13T04:04:55.300Z,20.90
2018-04-13T04:07:22.789Z,18.83
2018-04-13T04:09:50.260Z,20.50
2018-04-13T04:12:17.781Z,18.93
2018-04-13T04:14:46.027Z,19.57
2018-04-13T04:17:13.525Z,21.93
2018-04-13T04:19:53.321Z,21.80
2018-04-13T04:22:32.697Z,22.20
2018-04-13T04:25:13.795Z,20.47
2018-04-13T04:27:41.291Z,21.47
2018-04-13T04:30:09.680Z,19.83
2018-04-13T04:32:37.188Z,21.93
2018-04-13T04:35:04.679Z,22.73
2018-04-13T04:37:32.223Z,23.87
2018-04-13T04:39:59.696Z,20.80
2018-04-13T04:42:27.229Z,23.63
2018-04-13T04:44:54.790Z,21.80
2018-04-13T04:47:22.349Z,23.10
2018-04-13T04:49:49.827Z,19.37
2018-04-13T04:52:17.322Z,23.30
2018-04-13T04:54:45.086Z,20.20
2018-04-13T04:57:12.572Z,24.80
2018-04-13T04:59:40.075Z,22.70
2018-04-13T05:02:07.564Z,24.83
2018-04-13T05:04:35.879Z,26.87
2018-04-13T05:07:03.367Z,23.40
2018-04-13T05:09:30.845Z,21.93
2018-04-13T05:11:58.648Z,23.40
2018-04-13T05:14:26.149Z,19.73
2018-04-13T05:16:53.612Z,21.53
2018-04-13T05:19:21.107Z,21.67
2018-04-13T05:21:49.352Z,20.37
2018-04-13T05:24:16.853Z,20.70
2018-04-13T05:26:45.249Z,20.23
2018-04-13T05:29:12.793Z,18.87
2018-04-13T05:31:40.248Z,18.13
2018-04-13T05:34:07.748Z,21.57
2018-04-13T05:36:35.241Z,24.40
2018-04-13T05:39:03.552Z,23.23
2018-04-13T05:41:31.054Z,18.47
2018-04-13T05:43:58.551Z,21.17
2018-04-13T05:46:26.799Z,21.70
2018-04-13T05:48:54.284Z,19.83
2018-04-13T05:51:21.772Z,20.90
2018-04-13T05:53:49.285Z,19.83
2018-04-13T05:56:17.649Z,51.70
2018-04-13T05:58:45.281Z,32.70
2018-04-13T06:01:12.780Z,21.17
2018-04-13T06:03:41.054Z,18.90
2018-04-13T06:06:09.316Z,17.23
2018-04-13T06:08:36.825Z,17.30
2018-04-13T06:11:04.361Z,15.53
2018-04-13T06:13:32.886Z,14.27
2018-04-13T06:16:00.364Z,13.80
2018-04-13T06:18:27.929Z,14.70
2018-04-13T06:20:55.413Z,14.17
2018-04-13T06:23:23.721Z,14.67
2018-04-13T06:25:51.204Z,13.43
2018-04-13T06:28:18.704Z,13.60
2018-04-13T06:30:47.003Z,13.50
2018-04-13T06:33:14.566Z,11.43
2018-04-13T06:35:42.194Z,11.03
2018-04-13T06:38:10.483Z,10.50
2018-04-13T06:40:38.405Z,11.20
2018-04-13T06:43:07.411Z,10.73
2018-04-13T06:45:36.404Z,14.30
2018-04-13T06:48:03.923Z,12.10
2018-04-13T06:50:31.397Z,10.17
2018-04-13T06:52:58.995Z,13.93
2018-04-13T06:55:27.261Z,11.73
2018-04-13T06:57:54.748Z,10.80
2018-04-13T07:00:22.236Z,13.20
2018-04-13T07:02:49.763Z,9.07
2018-04-13T07:05:17.325Z,10.03
2018-04-13T07:07:44.849Z,9.33
2018-04-13T07:10:12.354Z,12.67
2018-04-13T07:12:39.870Z,11.27
2018-04-13T07:15:08.154Z,9.77
2018-04-13T07:17:36.411Z,10.10
2018-04-13T07:20:03.882Z,8.27
2018-04-13T07:22:32.140Z,11.27
2018-04-13T07:24:59.760Z,15.77
2018-04-13T07:27:27.234Z,15.70
2018-04-13T07:29:54.753Z,16.03
2018-04-13T07:32:22.268Z,15.63
2018-04-13T07:34:49.752Z,22.90
2018-04-13T07:37:18.074Z,17.73
2018-04-13T07:39:45.619Z,19.80
2018-04-13T07:42:13.096Z,24.60
2018-04-13T07:44:40.587Z,25.90
2018-04-13T07:47:08.068Z,23.23
2018-04-13T07:49:36.694Z,22.47
2018-04-13T07:52:04.614Z,22.87
2018-04-13T07:54:32.107Z,21.47
2018-04-13T07:57:00.481Z,20.60
2018-04-13T07:59:28.357Z,22.90
2018-04-13T08:01:55.919Z,22.87
2018-04-13T08:04:23.456Z,23.13
2018-04-13T08:06:51.708Z,25.17
2018-04-13T08:09:19.202Z,23.97
2018-04-13T08:11:46.682Z,22.73
2018-04-13T08:14:14.307Z,21.07
2018-04-13T08:16:42.605Z,21.60
2018-04-13T08:19:10.091Z,24.23
2018-04-13T08:21:37.575Z,21.73
2018-04-13T08:24:05.069Z,21.73
2018-04-13T08:26:33.383Z,20.27
2018-04-13T08:29:00.926Z,19.87
2018-04-13T08:31:28.415Z,22.03
2018-04-13T08:33:55.930Z,24.83
2018-04-13T08:36:23.468Z,23.13
2018-04-13T08:38:50.968Z,22.63
2018-04-13T08:41:18.467Z,21.77
2018-04-13T08:43:46.186Z,23.53
2018-04-13T08:46:13.670Z,27.07
2018-04-13T08:48:41.344Z,29.03
2018-04-13T08:51:09.508Z,30.07
2018-04-13T08:53:37.936Z,25.90
2018-04-13T08:56:05.420Z,25.37
2018-04-13T08:58:32.958Z,29.33
2018-04-13T09:01:00.573Z,26.83
2018-04-13T09:03:28.070Z,27.27
2018-04-13T09:05:55.774Z,29.63
2018-04-13T09:08:23.278Z,26.00
2018-04-13T09:10:51.690Z,27.47
2018-04-13T09:13:19.226Z,31.37
2018-04-13T09:15:48.050Z,30.20
2018-04-13T09:18:15.900Z,27.37
2018-04-13T09:20:43.883Z,28.13
2018-04-13T09:23:12.313Z,29.27
2018-04-13T09:25:40.593Z,28.67
2018-04-13T09:28:08.847Z,29.23
2018-04-13T09:30:37.132Z,27.37
2018-04-13T09:33:04.626Z,24.40
2018-04-13T09:35:32.126Z,18.27
2018-04-13T09:37:59.632Z,19.00
2018-04-13T09:40:27.283Z,16.87
2018-04-13T09:42:54.903Z,19.03
2018-04-13T09:45:22.502Z,18.40
2018-04-13T09:47:50.761Z,21.33
2018-04-13T09:50:18.279Z,21.53
2018-04-13T09:52:45.760Z,21.70
2018-04-13T09:55:13.287Z,24.73
2018-04-13T09:57:40.771Z,22.43
2018-04-13T10:00:08.281Z,19.90
2018-04-13T10:02:37.720Z,24.03
2018-04-13T10:05:10.879Z,26.30
2018-04-13T10:07:38.402Z,31.83
2018-04-13T10:10:05.917Z,38.30
2018-04-13T10:12:33.388Z,34.97
2018-04-13T10:15:01.020Z,35.37
2018-04-13T10:17:28.514Z,39.87
2018-04-13T10:19:55.998Z,35.27
2018-04-13T10:22:24.288Z,36.40
2018-04-13T10:24:52.597Z,37.80
2018-04-13T10:27:20.115Z,32.37
2018-04-13T10:29:48.354Z,33.73
2018-04-13T10:32:15.893Z,33.63
2018-04-13T10:34:43.431Z,35.00
2018-04-13T10:37:11.716Z,30.87
2018-04-13T10:39:39.192Z,26.37
2018-04-13T10:42:06.717Z,33.07
2018-04-13T10:44:34.216Z,29.87
2018-04-13T10:47:01.741Z,29.40
2018-04-13T10:49:29.471Z,26.87
2018-04-13T10:51:56.968Z,32.63
2018-04-13T10:54:24.461Z,29.97
2018-04-13T10:56:51.954Z,27.80
2018-04-13T10:59:20.197Z,26.07
2018-04-13T11:01:47.704Z,35.83
2018-04-13T11:04:15.198Z,28.57
2018-04-13T11:06:42.706Z,29.57
2018-04-13T11:09:10.991Z,31.00
2018-04-13T11:11:39.315Z,34.73
2018-04-13T11:14:06.852Z,33.20
2018-04-13T11:16:34.336Z,32.47
2018-04-13T11:19:01.862Z,33.10
2018-04-13T11:21:29.406Z,29.07
2018-04-13T11:23:56.915Z,30.30
2018-04-13T11:26:24.384Z,26.10
2018-04-13T11:28:51.891Z,27.13
2018-04-13T11:31:19.410Z,27.50
2018-04-13T11:33:46.921Z,27.20
2018-04-13T11:36:14.448Z,31.60
2018-04-13T11:38:42.978Z,27.33
2018-04-13T11:41:10.484Z,30.23
2018-04-13T11:43:38.750Z,31.33
2018-04-13T11:46:06.997Z,31.50
2018-04-13T11:48:35.149Z,31.70
2018-04-13T11:51:02.695Z,30.67
2018-04-13T11:53:30.245Z,32.70
2018-04-13T11:55:57.733Z,31.53
2018-04-13T11:58:25.356Z,33.80
2018-04-13T12:00:52.851Z,35.53
2018-04-13T12:03:20.376Z,33.67
2018-04-13T12:05:47.931Z,31.00
2018-04-13T12:08:16.157Z,25.60
2018-04-13T12:10:43.625Z,20.60
2018-04-13T12:13:11.213Z,17.20
2018-04-13T12:15:39.661Z,13.73
2018-04-13T12:18:07.170Z,6.83
2018-04-13T12:20:35.561Z,11.90
2018-04-13T12:23:03.041Z,8.43
2018-04-13T12:25:30.784Z,9.80
2018-04-13T12:27:58.270Z,17.60
2018-04-13T12:30:25.760Z,5.20
2018-04-13T12:32:56.554Z,5.93
2018-04-13T12:35:24.038Z,2.83
2018-04-13T12:37:51.650Z,4.33
2018-04-13T12:40:19.199Z,2.83
2018-04-13T12:42:46.726Z,2.10
2018-04-13T12:45:15.016Z,2.30
2018-04-13T12:47:43.254Z,5.83
2018-04-13T12:50:10.741Z,4.87
2018-04-13T12:52:39.035Z,3.20
2018-04-13T12:55:06.752Z,4.17
2018-04-13T12:57:34.836Z,1.47
2018-04-13T13:00:02.315Z,2.60
2018-04-13T13:02:29.779Z,1.60
2018-04-13T13:04:57.415Z,3.53
2018-04-13T13:07:24.879Z,1.67
2018-04-13T13:09:53.132Z,1.40
2018-04-13T13:12:20.698Z,4.07
2018-04-13T13:14:48.202Z,2.17
2018-04-13T13:17:15.761Z,1.20
2018-04-13T13:19:43.273Z,1.47
2018-04-13T13:22:10.774Z,1.60
2018-04-13T13:24:38.273Z,2.93
2018-04-13T13:27:05.736Z,2.03
2018-04-13T13:29:33.256Z,4.40
2018-04-13T13:32:00.732Z,2.27
2018-04-13T13:34:28.320Z,2.07
2018-04-13T13:36:55.802Z,3.03
2018-04-13T13:39:24.078Z,4.43
2018-04-13T13:41:51.620Z,2.50
2018-04-13T13:44:19.124Z,5.23
2018-04-13T13:46:46.625Z,4.67
2018-04-13T13:49:14.153Z,2.40
2018-04-13T13:51:41.644Z,31.60
2018-04-13T13:54:09.149Z,7.10
2018-04-13T13:56:36.712Z,6.17
2018-04-13T13:59:04.268Z,5.90
2018-04-13T14:01:31.787Z,5.30
2018-04-13T14:04:00.109Z,4.67
2018-04-13T14:06:27.664Z,10.23
2018-04-13T14:08:55.226Z,8.23
2018-04-13T14:11:22.719Z,6.80
2018-04-13T14:13:50.236Z,4.00
2018-04-13T14:16:17.798Z,5.80
2018-04-13T14:18:45.296Z,5.40
2018-04-13T14:21:12.816Z,4.93
2018-04-13T14:23:41.209Z,5.70
2018-04-13T14:26:08.798Z,4.80
2018-04-13T14:28:36.307Z,5.90
2018-04-13T14:31:04.559Z,3.93
2018-04-13T14:33:32.040Z,5.60
2018-04-13T14:36:00.425Z,6.00
2018-04-13T14:38:28.669Z,5.23
2018-04-13T14:40:56.354Z,5.47
2018-04-13T14:43:24.603Z,8.23
2018-04-13T14:45:52.370Z,5.40
2018-04-13T14:48:19.831Z,5.43
2018-04-13T14:50:47.305Z,6.00
2018-04-13T14:53:14.802Z,6.50
2018-04-13T14:55:42.322Z,7.03
2018-04-13T14:58:10.572Z,7.10
2018-04-13T15:00:38.062Z,8.67
2018-04-13T15:03:06.303Z,6.00
2018-04-13T15:05:33.800Z,9.13
2018-04-13T15:08:01.338Z,9.20
2018-04-13T15:10:29.611Z,8.60
2018-04-13T15:12:57.227Z,8.37
2018-04-13T15:15:24.697Z,10.03
2018-04-13T15:17:52.206Z,11.20
2018-04-13T15:20:20.465Z,13.00
2018-04-13T15:22:48.720Z,8.97
2018-04-13T15:25:16.192Z,9.83
2018-04-13T15:27:43.708Z,7.83
2018-04-13T15:30:11.256Z,9.00
2018-04-13T15:32:38.755Z,8.07
2018-04-13T15:35:06.275Z,7.23
2018-04-13T15:37:33.827Z,7.53
2018-04-13T15:40:01.304Z,11.10
2018-04-13T15:42:28.798Z,10.27
2018-04-13T15:44:56.366Z,10.83
2018-04-13T15:47:24.698Z,12.17
2018-04-13T15:49:52.196Z,11.17
2018-04-13T15:52:19.699Z,10.50
2018-04-13T15:54:47.253Z,14.67
2018-04-13T15:57:14.728Z,16.70
2018-04-13T15:59:42.370Z,17.77
2018-04-13T16:02:09.840Z,15.83
2018-04-13T16:04:37.949Z,15.90
2018-04-13T16:07:05.433Z,16.17
2018-04-13T16:09:33.696Z,16.43
2018-04-13T16:12:01.940Z,11.73
2018-04-13T16:14:29.429Z,13.30
2018-04-13T16:16:56.911Z,12.50
2018-04-13T16:19:24.408Z,11.13
2018-04-13T16:21:51.898Z,12.17
2018-04-13T16:24:19.502Z,11.07
2018-04-13T16:26:46.984Z,11.20
2018-04-13T16:29:14.616Z,13.90
2018-04-13T16:31:42.084Z,12.67
2018-04-13T16:34:09.575Z,16.77
2018-04-13T16:36:37.063Z,12.00
2018-04-13T16:39:06.319Z,11.83
2018-04-13T16:41:33.797Z,10.83
2018-04-13T16:44:01.290Z,17.07
2018-04-13T16:46:28.785Z,12.13
2018-04-13T16:48:56.325Z,13.20
2018-04-13T16:51:23.857Z,11.13
2018-04-13T16:53:52.100Z,10.83
2018-04-13T16:56:19.596Z,11.13
2018-04-13T16:58:47.084Z,11.80
2018-04-13T17:01:14.586Z,12.77
2018-04-13T17:03:42.069Z,13.73
2018-04-13T17:06:09.611Z,13.07
2018-04-13T17:08:37.858Z,12.13
2018-04-13T17:11:05.386Z,12.40
2018-04-13T17:13:32.864Z,14.43
2018-04-13T17:16:00.411Z,15.40
2018-04-13T17:18:27.889Z,13.07
2018-04-13T17:20:55.382Z,14.07
2018-04-13T17:23:23.633Z,15.70
2018-04-13T17:25:51.216Z,18.13
2018-04-13T17:28:19.463Z,11.57
2018-04-13T17:30:46.956Z,15.27
2018-04-13T17:33:15.222Z,13.83
2018-04-13T17:35:43.485Z,14.50
2018-04-13T17:38:10.964Z,16.10
2018-04-13T17:40:38.460Z,14.77
2018-04-13T17:43:05.997Z,13.80
2018-04-13T17:45:33.471Z,16.53
2018-04-13T17:48:00.968Z,16.17
2018-04-13T17:50:28.478Z,13.40
2018-04-13T17:52:56.079Z,14.87
2018-04-13T17:55:23.655Z,16.50
2018-04-13T17:57:51.908Z,15.70
2018-04-13T18:00:19.494Z,14.43
2018-04-13T18:02:47.810Z,18.10
2018-04-13T18:05:15.310Z,14.57
2018-04-13T18:07:42.801Z,15.13
2018-04-13T18:10:11.066Z,16.10
2018-04-13T18:12:39.316Z,14.23
2018-04-13T18:15:06.809Z,13.30
2018-04-13T18:17:35.073Z,19.27
2018-04-13T18:20:03.316Z,15.10
2018-04-13T18:22:30.875Z,17.03
2018-04-13T18:24:58.369Z,16.43
2018-04-13T18:27:26.720Z,13.53
2018-04-13T18:29:54.201Z,13.93
2018-04-13T18:32:22.471Z,17.00
2018-04-13T18:34:50.712Z,33.13
2018-04-13T18:37:18.206Z,15.70
2018-04-13T18:39:46.479Z,17.77
2018-04-13T18:42:14.740Z,20.47
2018-04-13T18:44:42.209Z,14.73
2018-04-13T18:47:09.725Z,16.83
2018-04-13T18:49:37.200Z,16.83
2018-04-13T18:52:04.824Z,18.27
2018-04-13T18:54:32.341Z,19.30
2018-04-13T18:56:59.861Z,20.13
2018-04-13T18:59:27.332Z,20.27
2018-04-13T19:01:54.842Z,19.07
2018-04-13T19:04:22.326Z,21.67
2018-04-13T19:06:49.861Z,22.43
2018-04-13T19:09:17.336Z,19.83
2018-04-13T19:11:44.837Z,21.90
2018-04-13T19:14:12.324Z,23.53
2018-04-13T19:16:39.919Z,22.67
2018-04-13T19:19:07.425Z,22.40
2018-04-13T19:21:34.934Z,19.50
2018-04-13T19:24:02.440Z,26.57
2018-04-13T19:26:29.964Z,22.67
2018-04-13T19:28:57.446Z,27.33
2018-04-13T19:31:24.956Z,25.30
2018-04-13T19:33:52.444Z,26.50
2018-04-13T19:36:19.936Z,24.47
2018-04-13T19:38:47.413Z,23.23
2018-04-13T19:41:15.018Z,24.70
2018-04-13T19:43:42.516Z,23.63
2018-04-13T19:46:10.789Z,23.53
2018-04-13T19:48:38.284Z,29.60
2018-04-13T19:51:05.889Z,29.90
2018-04-13T19:53:33.399Z,27.43
2018-04-13T19:56:01.689Z,27.00
2018-04-13T19:58:29.359Z,27.30
2018-04-13T20:00:56.885Z,28.57
2018-04-13T20:03:24.380Z,26.37
2018-04-13T20:05:51.895Z,26.27
2018-04-13T20:08:20.184Z,25.30
2018-04-13T20:10:47.696Z,28.43
2018-04-13T20:13:15.216Z,59.43
2018-04-13T20:15:42.695Z,52.63
2018-04-13T20:18:10.228Z,33.07
2018-04-13T20:20:37.708Z,34.37
2018-04-13T20:23:05.201Z,32.07
2018-04-13T20:25:32.695Z,30.50
2018-04-13T20:28:00.200Z,30.27
2018-04-13T20:30:27.686Z,32.10
2018-04-13T20:32:55.233Z,30.43
2018-04-13T20:35:22.712Z,28.23
2018-04-13T20:37:50.972Z,42.60
2018-04-13T20:40:18.538Z,54.50
2018-04-13T20:42:46.083Z,30.77
2018-04-13T20:45:13.609Z,31.43
2018-04-13T20:47:41.303Z,26.97
2018-04-13T20:50:09.559Z,32.67
2018-04-13T20:52:37.075Z,31.00
2018-04-13T20:55:04.584Z,32.87
2018-04-13T20:57:32.091Z,29.70
2018-04-13T21:00:00.428Z,29.43
2018-04-13T21:02:28.000Z,28.83
2018-04-13T21:04:55.459Z,29.20
2018-04-13T21:07:22.965Z,34.17
2018-04-13T21:09:50.528Z,30.70
2018-04-13T21:12:18.040Z,32.03
2018-04-13T21:14:45.540Z,33.27
2018-04-13T21:17:13.032Z,29.60
2018-04-13T21:19:40.539Z,30.40
2018-04-13T21:22:08.244Z,30.13
2018-04-13T21:24:35.744Z,28.87
2018-04-13T21:27:04.021Z,32.00
2018-04-13T21:29:31.549Z,31.70
2018-04-13T21:31:59.033Z,32.63
2018-04-13T21:34:27.302Z,30.33
2018-04-13T21:36:54.810Z,32.60
2018-04-13T21:39:22.358Z,32.53
2018-04-13T21:41:49.831Z,33.20
2018-04-13T21:44:17.374Z,30.73
2018-04-13T21:46:44.847Z,31.57
2018-04-13T21:49:12.341Z,33.07
2018-04-13T21:51:39.824Z,30.53
2018-04-13T21:54:08.095Z,34.93
2018-04-13T21:56:36.383Z,35.47
2018-04-13T21:59:03.951Z,32.30
2018-04-13T22:01:31.421Z,34.80
2018-04-13T22:03:58.944Z,34.93
2018-04-13T22:06:27.216Z,35.57
2018-04-13T22:08:54.763Z,34.87
2018-04-13T22:11:22.350Z,39.73
2018-04-13T22:13:50.538Z,34.90
2018-04-13T22:16:17.364Z,34.47
2018-04-13T22:18:45.609Z,35.30
2018-04-13T22:21:13.101Z,35.57
2018-04-13T22:23:40.654Z,37.50
2018-04-13T22:26:08.176Z,36.63
2018-04-13T22:28:35.677Z,40.03
2018-04-13T22:31:03.189Z,35.17
2018-04-13T22:33:30.680Z,37.00
2018-04-13T22:35:59.015Z,37.03
2018-04-13T22:38:26.528Z,36.67
2018-04-13T22:40:54.047Z,38.33
2018-04-13T22:43:21.520Z,36.80
2018-04-13T22:45:49.795Z,39.13
2018-04-13T22:48:18.050Z,38.67
2018-04-13T22:50:45.549Z,36.77
2018-04-13T22:53:13.105Z,37.87
2018-04-13T22:55:40.636Z,40.97
2018-04-13T22:58:08.160Z,40.37
2018-04-13T23:00:35.689Z,39.67
2018-04-13T23:03:03.169Z,38.57
2018-04-13T23:05:30.692Z,39.37
2018-04-13T23:07:58.934Z,39.30
2018-04-13T23:10:27.985Z,41.40
2018-04-13T23:12:55.448Z,40.50
2018-04-13T23:15:22.961Z,42.40
2018-04-13T23:17:50.434Z,40.33
2018-04-13T23:20:18.688Z,41.77
2018-04-13T23:22:46.273Z,41.90
2018-04-13T23:25:13.854Z,41.37
2018-04-13T23:27:41.352Z,40.43
2018-04-13T23:30:09.078Z,40.17
2018-04-13T23:32:36.597Z,42.57
2018-04-13T23:35:04.856Z,39.63
2018-04-13T23:37:32.355Z,42.30
2018-04-13T23:39:59.828Z,43.30
2018-04-13T23:42:27.323Z,38.27
2018-04-13T23:44:54.808Z,40.63
2018-04-13T23:47:23.067Z,39.33
2018-04-13T23:49:50.576Z,39.33
2018-04-13T23:52:18.083Z,40.57
2018-04-13T23:54:45.572Z,38.23
2018-04-13T23:57:13.085Z,34.23
2018-04-13T23:59:40.587Z,37.90
